Canuelas, Argentina
Current Conditions -  °F | °C
As of 9:00 PM on Friday 19 Dec 2014 (Local Time) from SAEZ Reporting Station
Clear Clear  
Wind Chill: 86°   Ceiling: Unl
Heat Index: 86°   Visibility: 6mi
Dew Point: 52°   Wind: 8mph
Humidity: 31%   Direction: 10°N
Pressure: 29.5"   Gusts: NA
Location:  35.05°S, 58.73°W
Report Text: SAEZ 200000Z 01007KT CAVOK 30/11 Q0999
Loading
Personal Weather Stations






























Interactive Weather Map New forecast layout! Learn more

10-Day Weather Forecast

Advertisements
Track Severe Weather on mobile